Bookmark and Share
Track history (hours):
 

Fourcroy

Last reported at 2014-Mar-18 06:30 UTC. Time now 2014-Apr-21 07:32 UTC.
Position S 10°27' E 142°18'.
Warning: this ship's position is 34 days out of date.

Length 47 m; draft 2 m.

Type: Cargo ship. MMSI: 503338000.

NotesDate/timePositionNaut miles runAvg speedWind from/ knotsBaromVisibWave heightAir tempDewpointWater temp
2014-Mar-18 06:30S 10°27' E 142°18'8 8.0
2014-Mar-18 05:33S 10°34' E 142°16'2 1.7
2014-Mar-18 04:33S 10°35' E 142°15'1 1.3
2014-Mar-18 03:33S 10°36' E 142°13'7 7.3
2014-Mar-18 02:33S 10°41' E 142°18'7 6.6
2014-Mar-18 01:33S 10°48' E 142°20'4 3.6
2014-Mar-18 00:33S 10°51' E 142°22'0 0.0
2014-Mar-17 23:33S 10°51' E 142°22'0 0.0
2014-Mar-17 22:33S 10°51' E 142°22'0 0.0
2014-Mar-17 21:33S 10°51' E 142°22'3 2.8
2014-Mar-17 20:33S 10°48' E 142°20'0 0.4
2014-Mar-17 19:30S 10°48' E 142°21'0 0.1
2014-Mar-17 18:33S 10°48' E 142°21'0 0.1
2014-Mar-17 17:33S 10°48' E 142°21'0 0.0
2014-Mar-17 16:30S 10°48' E 142°21'0 0.0
2014-Mar-17 15:33S 10°48' E 142°21'0 0.0
2014-Mar-17 14:33S 10°48' E 142°21'0 0.1
2014-Mar-17 13:33S 10°48' E 142°21'0 0.1
2014-Mar-17 12:33S 10°48' E 142°21'0 0.1
2014-Mar-17 11:30S 10°48' E 142°21'0 0.1
2014-Mar-17 10:33S 10°48' E 142°21'5 5.3
2014-Mar-17 09:33S 10°43' E 142°19'7 7.4
2014-Mar-17 08:33S 10°37' E 142°14'2 2.3
2014-Mar-17 07:34S 10°35' E 142°14'0 0.0
2014-Mar-17 06:34S 10°35' E 142°14'0 0.0
2014-Mar-17 05:34S 10°35' E 142°14'0 0.0
2014-Mar-17 04:33S 10°35' E 142°14'1 0.8
2014-Mar-17 03:33S 10°35' E 142°15'0 0.3
2014-Mar-17 02:33S 10°35' E 142°14'0 0.5
2014-Mar-17 01:33S 10°35' E 142°15'0 0.1
2014-Mar-17 00:34S 10°35' E 142°15'0 0.0
2014-Mar-16 23:33S 10°35' E 142°15'1 0.2
2014-Mar-16 19:33S 10°35' E 142°14'0 0.0
2014-Mar-16 18:33S 10°35' E 142°14'0 0.1
2014-Mar-16 17:33S 10°35' E 142°14'0 0.0
2014-Mar-16 16:33S 10°35' E 142°14'0 0.0
2014-Mar-16 15:33S 10°35' E 142°14'1 0.3
2014-Mar-16 13:33S 10°35' E 142°15'9 8.7
2014-Mar-16 12:33S 10°29' E 142°21'  
2014-Mar-11 07:33S 10°29' E 142°17'7 6.6
2014-Mar-11 06:33S 10°35' E 142°15'0 0.0
2014-Mar-11 05:33S 10°35' E 142°15'0 0.0
2014-Mar-11 04:33S 10°35' E 142°15'1 0.5
2014-Mar-11 03:33S 10°35' E 142°14'2 2.1
2014-Mar-11 02:34S 10°37' E 142°13'7 7.0
2014-Mar-11 01:33S 10°43' E 142°17'8 7.9
2014-Mar-11 00:33S 10°50' E 142°21'2 1.5
2014-Mar-10 23:33S 10°51' E 142°22'0 0.0
2014-Mar-10 22:33S 10°51' E 142°22'0 0.0
2014-Mar-10 21:33S 10°51' E 142°22'0 0.0
2014-Mar-10 20:33S 10°51' E 142°22'1 0.3
2014-Mar-10 15:11S 10°49' E 142°22'0 0.0
2014-Mar-10 14:33S 10°49' E 142°22'0 0.0
2014-Mar-10 13:33S 10°49' E 142°22'0 0.0
2014-Mar-10 12:33S 10°49' E 142°22'0 0.0
2014-Mar-10 11:33S 10°49' E 142°22'0 0.0
2014-Mar-10 10:33S 10°49' E 142°22'1 0.7
2014-Mar-10 09:33S 10°49' E 142°21'8 7.6
2014-Mar-10 08:33S 10°43' E 142°17'7 7.4
2014-Mar-10 07:33S 10°37' E 142°13'2 1.6
2014-Mar-10 06:33S 10°35' E 142°13'2 1.7
2014-Mar-10 05:33S 10°35' E 142°15'0 0.0
2014-Mar-10 04:33S 10°35' E 142°15'1 0.5
2014-Mar-10 03:33S 10°35' E 142°15'0 0.0
2014-Mar-10 02:33S 10°35' E 142°15'0 0.0
2014-Mar-10 01:33S 10°35' E 142°15'0 0.0
2014-Mar-10 00:33S 10°35' E 142°15'0 0.0
2014-Mar-09 23:33S 10°35' E 142°15'1 1.5
2014-Mar-09 22:33S 10°35' E 142°13'0 0.0
2014-Mar-09 21:33S 10°35' E 142°13'1 0.7
2014-Mar-09 20:32S 10°35' E 142°14'0 0.0
2014-Mar-09 19:32S 10°35' E 142°14'0 0.0
2014-Mar-09 18:32S 10°35' E 142°14'0 0.0
2014-Mar-09 17:32S 10°35' E 142°14'0 0.0
2014-Mar-09 16:32S 10°35' E 142°14'0 0.0
2014-Mar-09 15:32S 10°35' E 142°14'0 0.0
2014-Mar-09 14:32S 10°35' E 142°14'0 0.0
2014-Mar-09 13:32S 10°35' E 142°14'0 0.0
2014-Mar-09 12:32S 10°35' E 142°14'0 0.0
2014-Mar-09 11:32S 10°35' E 142°14'0 0.0
2014-Mar-09 10:32S 10°35' E 142°14'0 0.0
2014-Mar-09 09:32S 10°35' E 142°14'0 0.0
2014-Mar-09 08:32S 10°35' E 142°14'0 0.0
2014-Mar-09 07:32S 10°35' E 142°14'0 0.0
2014-Mar-09 06:32S 10°35' E 142°14'0 0.0
2014-Mar-09 05:32S 10°35' E 142°14'0 0.0
2014-Mar-09 04:32S 10°35' E 142°14'0 0.0
2014-Mar-09 03:32S 10°35' E 142°14'0 0.0
2014-Mar-09 02:32S 10°35' E 142°14'0 0.0
2014-Mar-09 01:32S 10°35' E 142°14'0 0.0
2014-Mar-09 00:32S 10°35' E 142°14'0 0.0
2014-Mar-08 23:32S 10°35' E 142°14'0 0.0
2014-Mar-08 22:32S 10°35' E 142°14'0 0.0
2014-Mar-08 21:33S 10°35' E 142°14'0 0.0
2014-Mar-08 20:53S 10°35' E 142°14'0 0.0
2014-Mar-08 20:33S 10°35' E 142°14'0 0.0
2014-Mar-08 19:33S 10°35' E 142°14'0 0.0
2014-Mar-08 18:33S 10°35' E 142°14'0 0.0
2014-Mar-08 17:33S 10°35' E 142°14'0 0.0
2014-Mar-08 16:33S 10°35' E 142°14'0 0.0
2014-Mar-08 15:34S 10°35' E 142°14'0 0.0
2014-Mar-08 14:33S 10°35' E 142°14'0 0.1
2014-Mar-08 13:34S 10°35' E 142°14'6 6.3
2014-Mar-08 12:33S 10°33' E 142°20'9 9.3
2014-Mar-08 11:33S 10°25' E 142°26'  

Dump ship's entire track history

sailing weather and tide predictions

Fourcroy — VMQ6160 — position and weather